sensor_id;sensor_type;location;lat;lon;timestamp;P1;durP1;ratioP1;P2;durP2;ratioP2
1350;SDS011;669;50.206;9.998;2023-05-01T00:02:04;3.57;;;2.27;;
1350;SDS011;669;50.206;9.998;2023-05-01T00:04:32;2.77;;;2.57;;
1350;SDS011;669;50.206;9.998;2023-05-01T00:07:00;3.30;;;2.83;;
1350;SDS011;669;50.206;9.998;2023-05-01T00:09:28;4.97;;;2.50;;
1350;SDS011;669;50.206;9.998;2023-05-01T00:11:57;5.10;;;2.50;;
1350;SDS011;669;50.206;9.998;2023-05-01T00:14:26;3.13;;;2.83;;
1350;SDS011;669;50.206;9.998;2023-05-01T00:16:54;5.00;;;2.87;;
1350;SDS011;669;50.206;9.998;2023-05-01T00:19:23;2.77;;;2.57;;
1350;SDS011;669;50.206;9.998;2023-05-01T00:21:51;3.40;;;2.40;;
1350;SDS011;669;50.206;9.998;2023-05-01T00:24:19;2.57;;;2.37;;
1350;SDS011;669;50.206;9.998;2023-05-01T00:26:46;3.37;;;3.07;;
1350;SDS011;669;50.206;9.998;2023-05-01T00:29:14;4.40;;;3.00;;
1350;SDS011;669;50.206;9.998;2023-05-01T00:31:44;7.00;;;3.57;;
1350;SDS011;669;50.206;9.998;2023-05-01T00:34:12;7.37;;;2.80;;
1350;SDS011;669;50.206;9.998;2023-05-01T00:36:40;3.80;;;3.00;;
1350;SDS011;669;50.206;9.998;2023-05-01T00:39:08;3.30;;;3.00;;
1350;SDS011;669;50.206;9.998;2023-05-01T00:41:36;4.80;;;2.90;;
1350;SDS011;669;50.206;9.998;2023-05-01T00:44:04;4.30;;;3.30;;
1350;SDS011;669;50.206;9.998;2023-05-01T00:46:32;4.60;;;3.27;;
1350;SDS011;669;50.206;9.998;2023-05-01T00:49:02;3.83;;;3.30;;
1350;SDS011;669;50.206;9.998;2023-05-01T00:51:30;6.67;;;3.37;;
1350;SDS011;669;50.206;9.998;2023-05-01T00:53:59;4.33;;;3.20;;
1350;SDS011;669;50.206;9.998;2023-05-01T00:56:29;4.30;;;2.87;;
1350;SDS011;669;50.206;9.998;2023-05-01T00:58:57;5.90;;;3.00;;
1350;SDS011;669;50.206;9.998;2023-05-01T01:01:26;3.40;;;3.10;;
1350;SDS011;669;50.206;9.998;2023-05-01T01:03:54;3.73;;;3.43;;
1350;SDS011;669;50.206;9.998;2023-05-01T01:06:27;5.97;;;3.30;;
1350;SDS011;669;50.206;9.998;2023-05-01T01:09:03;5.90;;;3.50;;
1350;SDS011;669;50.206;9.998;2023-05-01T01:11:42;4.80;;;3.40;;
1350;SDS011;669;50.206;9.998;2023-05-01T01:14:19;3.87;;;2.73;;
1350;SDS011;669;50.206;9.998;2023-05-01T01:17:03;5.57;;;3.30;;
1350;SDS011;669;50.206;9.998;2023-05-01T01:22:45;4.70;;;4.30;;
1350;SDS011;669;50.206;9.998;2023-05-01T01:25:40;6.40;;;3.70;;
1350;SDS011;669;50.206;9.998;2023-05-01T01:28:31;4.50;;;4.10;;
1350;SDS011;669;50.206;9.998;2023-05-01T01:31:12;7.43;;;3.03;;
1350;SDS011;669;50.206;9.998;2023-05-01T01:33:48;5.40;;;3.70;;
1350;SDS011;669;50.206;9.998;2023-05-01T01:36:25;4.80;;;3.10;;
1350;SDS011;669;50.206;9.998;2023-05-01T01:39:07;4.47;;;4.07;;
1350;SDS011;669;50.206;9.998;2023-05-01T01:41:38;5.07;;;3.73;;
1350;SDS011;669;50.206;9.998;2023-05-01T01:44:11;4.37;;;3.40;;
1350;SDS011;669;50.206;9.998;2023-05-01T01:46:47;5.20;;;3.80;;
1350;SDS011;669;50.206;9.998;2023-05-01T01:49:19;4.77;;;4.37;;
1350;SDS011;669;50.206;9.998;2023-05-01T01:51:49;4.67;;;4.27;;
1350;SDS011;669;50.206;9.998;2023-05-01T01:54:21;3.60;;;3.30;;
1350;SDS011;669;50.206;9.998;2023-05-01T01:56:52;4.57;;;4.17;;
1350;SDS011;669;50.206;9.998;2023-05-01T01:59:23;7.30;;;4.77;;
1350;SDS011;669;50.206;9.998;2023-05-01T02:01:52;3.97;;;3.23;;
1350;SDS011;669;50.206;9.998;2023-05-01T02:04:23;3.73;;;3.37;;
1350;SDS011;669;50.206;9.998;2023-05-01T02:06:54;5.03;;;3.97;;
1350;SDS011;669;50.206;9.998;2023-05-01T02:09:23;5.50;;;4.43;;
1350;SDS011;669;50.206;9.998;2023-05-01T02:11:52;4.30;;;3.90;;
1350;SDS011;669;50.206;9.998;2023-05-01T02:14:21;3.83;;;3.43;;
1350;SDS011;669;50.206;9.998;2023-05-01T02:16:53;4.70;;;4.03;;
1350;SDS011;669;50.206;9.998;2023-05-01T02:19:23;4.40;;;4.00;;
1350;SDS011;669;50.206;9.998;2023-05-01T02:21:52;5.60;;;4.13;;
1350;SDS011;669;50.206;9.998;2023-05-01T02:24:23;4.00;;;3.60;;
1350;SDS011;669;50.206;9.998;2023-05-01T02:26:53;3.93;;;3.50;;
1350;SDS011;669;50.206;9.998;2023-05-01T02:29:26;6.90;;;4.27;;
1350;SDS011;669;50.206;9.998;2023-05-01T02:31:54;5.07;;;4.00;;
1350;SDS011;669;50.206;9.998;2023-05-01T02:34:24;7.40;;;5.80;;
1350;SDS011;669;50.206;9.998;2023-05-01T02:36:51;5.23;;;4.73;;
1350;SDS011;669;50.206;9.998;2023-05-01T02:39:19;7.33;;;4.70;;
1350;SDS011;669;50.206;9.998;2023-05-01T02:41:48;4.77;;;4.07;;
1350;SDS011;669;50.206;9.998;2023-05-01T02:44:18;5.70;;;5.10;;
1350;SDS011;669;50.206;9.998;2023-05-01T02:46:47;5.70;;;4.47;;
1350;SDS011;669;50.206;9.998;2023-05-01T02:49:16;5.97;;;4.90;;
1350;SDS011;669;50.206;9.998;2023-05-01T02:51:48;4.87;;;4.37;;
1350;SDS011;669;50.206;9.998;2023-05-01T02:54:16;9.60;;;6.77;;
1350;SDS011;669;50.206;9.998;2023-05-01T02:56:44;5.80;;;5.20;;
1350;SDS011;669;50.206;9.998;2023-05-01T02:59:12;10.90;;;5.80;;
1350;SDS011;669;50.206;9.998;2023-05-01T03:01:40;12.07;;;6.70;;
1350;SDS011;669;50.206;9.998;2023-05-01T03:04:08;7.10;;;4.90;;
1350;SDS011;669;50.206;9.998;2023-05-01T03:06:36;6.90;;;5.97;;
1350;SDS011;669;50.206;9.998;2023-05-01T03:09:05;7.90;;;6.30;;
1350;SDS011;669;50.206;9.998;2023-05-01T03:11:33;8.57;;;6.00;;
1350;SDS011;669;50.206;9.998;2023-05-01T03:14:01;7.17;;;5.33;;
1350;SDS011;669;50.206;9.998;2023-05-01T03:16:29;8.07;;;5.93;;
1350;SDS011;669;50.206;9.998;2023-05-01T03:18:57;10.70;;;7.10;;
1350;SDS011;669;50.206;9.998;2023-05-01T03:21:25;8.93;;;6.90;;
1350;SDS011;669;50.206;9.998;2023-05-01T03:23:53;9.73;;;7.50;;
1350;SDS011;669;50.206;9.998;2023-05-01T03:26:22;7.60;;;6.60;;
1350;SDS011;669;50.206;9.998;2023-05-01T03:28:50;9.93;;;7.70;;
1350;SDS011;669;50.206;9.998;2023-05-01T03:31:18;10.07;;;7.70;;
1350;SDS011;669;50.206;9.998;2023-05-01T03:33:45;10.53;;;7.73;;
1350;SDS011;669;50.206;9.998;2023-05-01T03:36:14;7.50;;;6.30;;
1350;SDS011;669;50.206;9.998;2023-05-01T03:38:42;9.33;;;7.13;;
1350;SDS011;669;50.206;9.998;2023-05-01T03:41:10;9.47;;;7.00;;
1350;SDS011;669;50.206;9.998;2023-05-01T03:43:39;10.50;;;7.77;;
1350;SDS011;669;50.206;9.998;2023-05-01T03:46:07;9.60;;;7.50;;
1350;SDS011;669;50.206;9.998;2023-05-01T03:48:35;8.43;;;7.20;;
1350;SDS011;669;50.206;9.998;2023-05-01T03:51:03;7.97;;;6.70;;
1350;SDS011;669;50.206;9.998;2023-05-01T03:53:31;8.27;;;6.60;;
1350;SDS011;669;50.206;9.998;2023-05-01T03:55:59;8.03;;;6.33;;
1350;SDS011;669;50.206;9.998;2023-05-01T03:58:29;9.17;;;7.13;;
1350;SDS011;669;50.206;9.998;2023-05-01T04:00:58;9.57;;;6.67;;
1350;SDS011;669;50.206;9.998;2023-05-01T04:03:28;13.90;;;7.70;;
1350;SDS011;669;50.206;9.998;2023-05-01T04:05:56;11.70;;;8.43;;
1350;SDS011;669;50.206;9.998;2023-05-01T04:08:24;13.40;;;8.10;;
1350;SDS011;669;50.206;9.998;2023-05-01T04:10:52;10.47;;;7.90;;
1350;SDS011;669;50.206;9.998;2023-05-01T04:13:20;9.83;;;7.00;;
1350;SDS011;669;50.206;9.998;2023-05-01T04:15:48;8.70;;;7.00;;
1350;SDS011;669;50.206;9.998;2023-05-01T04:18:17;8.80;;;6.97;;
1350;SDS011;669;50.206;9.998;2023-05-01T04:20:45;9.03;;;6.93;;
1350;SDS011;669;50.206;9.998;2023-05-01T04:23:13;12.17;;;7.23;;
1350;SDS011;669;50.206;9.998;2023-05-01T04:25:41;7.17;;;6.10;;
1350;SDS011;669;50.206;9.998;2023-05-01T04:28:09;10.67;;;8.10;;
1350;SDS011;669;50.206;9.998;2023-05-01T04:30:37;6.90;;;5.93;;
1350;SDS011;669;50.206;9.998;2023-05-01T04:33:05;11.90;;;7.73;;
1350;SDS011;669;50.206;9.998;2023-05-01T04:35:38;9.20;;;6.70;;
1350;SDS011;669;50.206;9.998;2023-05-01T04:38:06;9.10;;;6.90;;
1350;SDS011;669;50.206;9.998;2023-05-01T04:40:35;8.27;;;7.23;;
1350;SDS011;669;50.206;9.998;2023-05-01T04:43:03;7.77;;;6.43;;
1350;SDS011;669;50.206;9.998;2023-05-01T04:45:31;7.47;;;5.83;;
1350;SDS011;669;50.206;9.998;2023-05-01T04:47:59;7.70;;;6.30;;
1350;SDS011;669;50.206;9.998;2023-05-01T04:50:27;9.03;;;6.70;;
1350;SDS011;669;50.206;9.998;2023-05-01T04:52:56;8.13;;;6.57;;
1350;SDS011;669;50.206;9.998;2023-05-01T04:55:25;13.03;;;7.47;;
1350;SDS011;669;50.206;9.998;2023-05-01T04:57:56;10.67;;;7.83;;
1350;SDS011;669;50.206;9.998;2023-05-01T05:00:24;8.87;;;7.03;;
1350;SDS011;669;50.206;9.998;2023-05-01T05:02:53;8.83;;;7.93;;
1350;SDS011;669;50.206;9.998;2023-05-01T05:05:21;8.10;;;7.00;;
1350;SDS011;669;50.206;9.998;2023-05-01T05:07:49;8.40;;;6.43;;
1350;SDS011;669;50.206;9.998;2023-05-01T05:10:18;12.30;;;7.50;;
1350;SDS011;669;50.206;9.998;2023-05-01T05:12:46;8.13;;;7.10;;
1350;SDS011;669;50.206;9.998;2023-05-01T05:15:14;11.40;;;7.43;;
1350;SDS011;669;50.206;9.998;2023-05-01T05:17:42;9.10;;;7.67;;
1350;SDS011;669;50.206;9.998;2023-05-01T05:20:10;12.00;;;8.97;;
1350;SDS011;669;50.206;9.998;2023-05-01T05:22:38;16.07;;;9.03;;
1350;SDS011;669;50.206;9.998;2023-05-01T05:25:07;10.17;;;9.03;;
1350;SDS011;669;50.206;9.998;2023-05-01T05:27:36;9.53;;;7.70;;
1350;SDS011;669;50.206;9.998;2023-05-01T05:30:04;9.43;;;8.40;;
1350;SDS011;669;50.206;9.998;2023-05-01T05:32:33;10.77;;;8.63;;
1350;SDS011;669;50.206;9.998;2023-05-01T05:35:01;11.50;;;9.00;;
1350;SDS011;669;50.206;9.998;2023-05-01T05:37:30;9.73;;;8.47;;
1350;SDS011;669;50.206;9.998;2023-05-01T05:39:58;10.40;;;8.43;;
1350;SDS011;669;50.206;9.998;2023-05-01T05:42:25;13.50;;;9.93;;
1350;SDS011;669;50.206;9.998;2023-05-01T05:44:55;10.30;;;8.20;;
1350;SDS011;669;50.206;9.998;2023-05-01T05:47:23;11.30;;;9.00;;
1350;SDS011;669;50.206;9.998;2023-05-01T05:49:51;8.73;;;7.83;;
1350;SDS011;669;50.206;9.998;2023-05-01T05:52:21;13.30;;;9.70;;
1350;SDS011;669;50.206;9.998;2023-05-01T05:54:48;8.40;;;7.57;;
1350;SDS011;669;50.206;9.998;2023-05-01T05:57:16;11.10;;;8.03;;
1350;SDS011;669;50.206;9.998;2023-05-01T05:59:44;10.63;;;8.80;;
1350;SDS011;669;50.206;9.998;2023-05-01T06:02:13;11.90;;;8.80;;
1350;SDS011;669;50.206;9.998;2023-05-01T06:04:41;9.37;;;8.47;;
1350;SDS011;669;50.206;9.998;2023-05-01T06:07:09;9.10;;;8.10;;
1350;SDS011;669;50.206;9.998;2023-05-01T06:09:37;9.03;;;7.60;;
1350;SDS011;669;50.206;9.998;2023-05-01T06:12:05;9.47;;;8.00;;
1350;SDS011;669;50.206;9.998;2023-05-01T06:14:33;12.53;;;8.90;;
1350;SDS011;669;50.206;9.998;2023-05-01T06:17:01;11.97;;;8.90;;
1350;SDS011;669;50.206;9.998;2023-05-01T06:19:30;14.97;;;8.90;;
1350;SDS011;669;50.206;9.998;2023-05-01T06:21:58;10.10;;;9.07;;
1350;SDS011;669;50.206;9.998;2023-05-01T06:24:26;10.80;;;8.10;;
1350;SDS011;669;50.206;9.998;2023-05-01T06:26:54;13.57;;;9.20;;
1350;SDS011;669;50.206;9.998;2023-05-01T06:29:22;16.27;;;8.50;;
1350;SDS011;669;50.206;9.998;2023-05-01T06:31:49;7.63;;;6.83;;
1350;SDS011;669;50.206;9.998;2023-05-01T06:34:17;8.10;;;7.40;;
1350;SDS011;669;50.206;9.998;2023-05-01T06:36:46;9.03;;;8.13;;
1350;SDS011;669;50.206;9.998;2023-05-01T06:39:14;8.70;;;7.80;;
1350;SDS011;669;50.206;9.998;2023-05-01T06:41:44;9.73;;;8.00;;
1350;SDS011;669;50.206;9.998;2023-05-01T06:44:12;11.80;;;7.77;;
1350;SDS011;669;50.206;9.998;2023-05-01T06:46:40;9.30;;;7.47;;
1350;SDS011;669;50.206;9.998;2023-05-01T06:49:08;13.97;;;7.87;;
1350;SDS011;669;50.206;9.998;2023-05-01T06:51:36;8.57;;;7.73;;
1350;SDS011;669;50.206;9.998;2023-05-01T06:54:05;13.57;;;7.90;;
1350;SDS011;669;50.206;9.998;2023-05-01T06:56:33;8.00;;;7.20;;
1350;SDS011;669;50.206;9.998;2023-05-01T06:59:01;8.97;;;6.50;;
1350;SDS011;669;50.206;9.998;2023-05-01T07:01:29;7.73;;;7.10;;
1350;SDS011;669;50.206;9.998;2023-05-01T07:04:00;9.30;;;7.87;;
1350;SDS011;669;50.206;9.998;2023-05-01T07:06:29;8.03;;;7.17;;
1350;SDS011;669;50.206;9.998;2023-05-01T07:08:57;10.97;;;7.57;;
1350;SDS011;669;50.206;9.998;2023-05-01T07:11:26;7.50;;;6.67;;
1350;SDS011;669;50.206;9.998;2023-05-01T07:13:54;14.13;;;7.20;;
1350;SDS011;669;50.206;9.998;2023-05-01T07:16:22;8.87;;;7.00;;
1350;SDS011;669;50.206;9.998;2023-05-01T07:18:50;10.90;;;7.40;;
1350;SDS011;669;50.206;9.998;2023-05-01T07:21:18;10.97;;;7.70;;
1350;SDS011;669;50.206;9.998;2023-05-01T07:23:46;7.23;;;6.37;;
1350;SDS011;669;50.206;9.998;2023-05-01T07:26:14;6.90;;;6.03;;
1350;SDS011;669;50.206;9.998;2023-05-01T07:28:43;7.03;;;5.70;;
1350;SDS011;669;50.206;9.998;2023-05-01T07:31:11;9.80;;;6.33;;
1350;SDS011;669;50.206;9.998;2023-05-01T07:33:39;6.13;;;5.63;;
1350;SDS011;669;50.206;9.998;2023-05-01T07:36:08;7.83;;;6.23;;
1350;SDS011;669;50.206;9.998;2023-05-01T07:38:36;6.47;;;5.87;;
1350;SDS011;669;50.206;9.998;2023-05-01T07:41:04;6.53;;;5.83;;
1350;SDS011;669;50.206;9.998;2023-05-01T07:43:32;9.77;;;6.40;;
1350;SDS011;669;50.206;9.998;2023-05-01T07:46:01;10.70;;;6.30;;
1350;SDS011;669;50.206;9.998;2023-05-01T07:48:30;7.70;;;6.50;;
1350;SDS011;669;50.206;9.998;2023-05-01T07:51:00;7.53;;;6.20;;
1350;SDS011;669;50.206;9.998;2023-05-01T07:53:29;6.63;;;6.00;;
1350;SDS011;669;50.206;9.998;2023-05-01T07:56:03;9.13;;;6.30;;
1350;SDS011;669;50.206;9.998;2023-05-01T07:58:32;5.27;;;4.87;;
1350;SDS011;669;50.206;9.998;2023-05-01T08:01:02;7.10;;;5.60;;
1350;SDS011;669;50.206;9.998;2023-05-01T08:03:32;8.20;;;6.23;;
1350;SDS011;669;50.206;9.998;2023-05-01T08:06:00;8.30;;;5.83;;
1350;SDS011;669;50.206;9.998;2023-05-01T08:08:28;8.70;;;6.47;;
1350;SDS011;669;50.206;9.998;2023-05-01T08:10:56;7.47;;;6.73;;
1350;SDS011;669;50.206;9.998;2023-05-01T08:13:23;7.97;;;5.63;;
1350;SDS011;669;50.206;9.998;2023-05-01T08:15:51;9.23;;;5.50;;
1350;SDS011;669;50.206;9.998;2023-05-01T08:18:21;8.37;;;7.33;;
1350;SDS011;669;50.206;9.998;2023-05-01T08:20:48;7.43;;;5.47;;
1350;SDS011;669;50.206;9.998;2023-05-01T08:23:16;6.57;;;5.97;;
1350;SDS011;669;50.206;9.998;2023-05-01T08:25:44;8.10;;;5.80;;
1350;SDS011;669;50.206;9.998;2023-05-01T08:28:16;5.70;;;5.20;;
1350;SDS011;669;50.206;9.998;2023-05-01T08:30:45;7.17;;;6.40;;
1350;SDS011;669;50.206;9.998;2023-05-01T08:33:14;6.83;;;6.13;;
1350;SDS011;669;50.206;9.998;2023-05-01T08:35:44;6.90;;;5.50;;
1350;SDS011;669;50.206;9.998;2023-05-01T08:38:11;6.07;;;5.47;;
1350;SDS011;669;50.206;9.998;2023-05-01T08:40:39;6.07;;;5.47;;
1350;SDS011;669;50.206;9.998;2023-05-01T08:43:12;6.60;;;5.90;;
1350;SDS011;669;50.206;9.998;2023-05-01T08:45:40;6.80;;;5.43;;
1350;SDS011;669;50.206;9.998;2023-05-01T08:48:09;5.47;;;4.97;;
1350;SDS011;669;50.206;9.998;2023-05-01T08:50:38;13.30;;;6.70;;
1350;SDS011;669;50.206;9.998;2023-05-01T08:53:13;6.63;;;5.50;;
1350;SDS011;669;50.206;9.998;2023-05-01T08:55:44;5.73;;;5.23;;
1350;SDS011;669;50.206;9.998;2023-05-01T08:58:13;6.13;;;5.37;;
1350;SDS011;669;50.206;9.998;2023-05-01T09:00:45;6.40;;;5.90;;
1350;SDS011;669;50.206;9.998;2023-05-01T09:03:13;6.03;;;5.43;;
1350;SDS011;669;50.206;9.998;2023-05-01T09:05:42;7.10;;;5.60;;
1350;SDS011;669;50.206;9.998;2023-05-01T09:08:10;5.13;;;4.63;;
1350;SDS011;669;50.206;9.998;2023-05-01T09:10:41;5.40;;;4.70;;
1350;SDS011;669;50.206;9.998;2023-05-01T09:13:12;6.73;;;5.13;;
1350;SDS011;669;50.206;9.998;2023-05-01T09:15:39;5.43;;;4.93;;
1350;SDS011;669;50.206;9.998;2023-05-01T09:18:07;7.47;;;5.00;;
1350;SDS011;669;50.206;9.998;2023-05-01T09:20:35;8.67;;;6.07;;
1350;SDS011;669;50.206;9.998;2023-05-01T09:23:04;5.33;;;4.83;;
1350;SDS011;669;50.206;9.998;2023-05-01T09:25:33;5.13;;;4.63;;
1350;SDS011;669;50.206;9.998;2023-05-01T09:28:03;4.93;;;4.50;;
1350;SDS011;669;50.206;9.998;2023-05-01T09:30:31;7.00;;;5.30;;
1350;SDS011;669;50.206;9.998;2023-05-01T09:33:04;4.83;;;4.33;;
1350;SDS011;669;50.206;9.998;2023-05-01T09:35:49;5.10;;;4.60;;
1350;SDS011;669;50.206;9.998;2023-05-01T09:38:18;6.43;;;5.00;;
1350;SDS011;669;50.206;9.998;2023-05-01T09:40:48;5.50;;;4.97;;
1350;SDS011;669;50.206;9.998;2023-05-01T09:43:25;5.50;;;4.57;;
1350;SDS011;669;50.206;9.998;2023-05-01T09:46:00;5.40;;;4.80;;
1350;SDS011;669;50.206;9.998;2023-05-01T09:48:29;5.60;;;5.10;;
1350;SDS011;669;50.206;9.998;2023-05-01T09:51:00;6.13;;;5.40;;
1350;SDS011;669;50.206;9.998;2023-05-01T09:53:35;7.47;;;4.90;;
1350;SDS011;669;50.206;9.998;2023-05-01T09:56:06;4.57;;;4.27;;
1350;SDS011;669;50.206;9.998;2023-05-01T09:58:34;5.53;;;4.93;;
1350;SDS011;669;50.206;9.998;2023-05-01T10:01:02;5.50;;;5.00;;
1350;SDS011;669;50.206;9.998;2023-05-01T10:03:30;5.63;;;5.00;;
1350;SDS011;669;50.206;9.998;2023-05-01T10:06:00;5.57;;;5.07;;
1350;SDS011;669;50.206;9.998;2023-05-01T10:08:42;4.83;;;4.43;;
1350;SDS011;669;50.206;9.998;2023-05-01T10:11:12;4.60;;;4.23;;
1350;SDS011;669;50.206;9.998;2023-05-01T10:13:40;4.80;;;4.30;;
1350;SDS011;669;50.206;9.998;2023-05-01T10:18:55;4.47;;;4.17;;
1350;SDS011;669;50.206;9.998;2023-05-01T10:21:24;5.47;;;4.97;;
1350;SDS011;669;50.206;9.998;2023-05-01T10:23:52;4.27;;;3.87;;
1350;SDS011;669;50.206;9.998;2023-05-01T10:26:22;5.93;;;5.33;;
1350;SDS011;669;50.206;9.998;2023-05-01T10:28:51;4.60;;;4.20;;
1350;SDS011;669;50.206;9.998;2023-05-01T10:31:19;5.00;;;4.50;;
1350;SDS011;669;50.206;9.998;2023-05-01T10:33:47;6.43;;;5.10;;
1350;SDS011;669;50.206;9.998;2023-05-01T10:36:16;5.10;;;4.40;;
1350;SDS011;669;50.206;9.998;2023-05-01T10:38:48;8.50;;;5.63;;
1350;SDS011;669;50.206;9.998;2023-05-01T10:41:17;5.53;;;5.03;;
1350;SDS011;669;50.206;9.998;2023-05-01T10:44:25;5.80;;;4.90;;
1350;SDS011;669;50.206;9.998;2023-05-01T10:46:53;4.87;;;4.50;;
1350;SDS011;669;50.206;9.998;2023-05-01T10:49:21;6.27;;;5.17;;
1350;SDS011;669;50.206;9.998;2023-05-01T10:51:59;6.67;;;4.47;;
1350;SDS011;669;50.206;9.998;2023-05-01T10:54:29;6.83;;;4.50;;
1350;SDS011;669;50.206;9.998;2023-05-01T10:57:00;5.30;;;4.83;;
1350;SDS011;669;50.206;9.998;2023-05-01T11:02:31;5.00;;;4.60;;
1350;SDS011;669;50.206;9.998;2023-05-01T11:04:59;4.50;;;4.10;;
1350;SDS011;669;50.206;9.998;2023-05-01T11:07:28;5.60;;;4.57;;
1350;SDS011;669;50.206;9.998;2023-05-01T11:09:58;4.67;;;4.20;;
1350;SDS011;669;50.206;9.998;2023-05-01T11:15:29;4.53;;;4.13;;
1350;SDS011;669;50.206;9.998;2023-05-01T11:17:59;5.10;;;4.57;;
1350;SDS011;669;50.206;9.998;2023-05-01T11:20:44;5.60;;;4.77;;
1350;SDS011;669;50.206;9.998;2023-05-01T11:23:19;5.20;;;4.80;;
1350;SDS011;669;50.206;9.998;2023-05-01T11:25:47;5.03;;;4.40;;
1350;SDS011;669;50.206;9.998;2023-05-01T11:28:19;5.80;;;4.53;;
1350;SDS011;669;50.206;9.998;2023-05-01T11:30:47;5.30;;;4.90;;
1350;SDS011;669;50.206;9.998;2023-05-01T11:33:23;7.30;;;4.30;;
1350;SDS011;669;50.206;9.998;2023-05-01T11:35:59;4.93;;;4.53;;
1350;SDS011;669;50.206;9.998;2023-05-01T11:38:28;5.80;;;4.80;;
1350;SDS011;669;50.206;9.998;2023-05-01T11:40:57;6.70;;;5.80;;
1350;SDS011;669;50.206;9.998;2023-05-01T11:43:27;5.80;;;5.20;;
1350;SDS011;669;50.206;9.998;2023-05-01T11:45:54;5.57;;;4.97;;
1350;SDS011;669;50.206;9.998;2023-05-01T11:48:30;7.10;;;5.33;;
1350;SDS011;669;50.206;9.998;2023-05-01T11:50:58;5.50;;;5.00;;
1350;SDS011;669;50.206;9.998;2023-05-01T11:53:26;5.23;;;4.70;;
1350;SDS011;669;50.206;9.998;2023-05-01T11:55:54;5.73;;;5.23;;
1350;SDS011;669;50.206;9.998;2023-05-01T11:58:31;5.73;;;4.67;;
1350;SDS011;669;50.206;9.998;2023-05-01T12:01:01;7.33;;;4.80;;
1350;SDS011;669;50.206;9.998;2023-05-01T12:03:40;6.13;;;5.10;;
1350;SDS011;669;50.206;9.998;2023-05-01T12:06:09;4.90;;;4.00;;
1350;SDS011;669;50.206;9.998;2023-05-01T12:08:40;4.83;;;4.43;;
1350;SDS011;669;50.206;9.998;2023-05-01T12:11:10;4.57;;;4.20;;
1350;SDS011;669;50.206;9.998;2023-05-01T12:13:38;5.60;;;5.10;;
1350;SDS011;669;50.206;9.998;2023-05-01T12:16:07;6.70;;;5.40;;
1350;SDS011;669;50.206;9.998;2023-05-01T12:18:36;6.97;;;6.27;;
1350;SDS011;669;50.206;9.998;2023-05-01T12:21:05;6.83;;;6.13;;
1350;SDS011;669;50.206;9.998;2023-05-01T12:23:42;6.63;;;5.13;;
1350;SDS011;669;50.206;9.998;2023-05-01T12:26:16;6.70;;;6.10;;
1350;SDS011;669;50.206;9.998;2023-05-01T12:28:55;7.30;;;6.10;;
1350;SDS011;669;50.206;9.998;2023-05-01T12:31:24;7.93;;;6.33;;
1350;SDS011;669;50.206;9.998;2023-05-01T12:33:53;7.93;;;6.53;;
1350;SDS011;669;50.206;9.998;2023-05-01T12:36:24;6.37;;;5.77;;
1350;SDS011;669;50.206;9.998;2023-05-01T12:38:54;8.27;;;6.23;;
1350;SDS011;669;50.206;9.998;2023-05-01T12:41:36;6.20;;;5.67;;
1350;SDS011;669;50.206;9.998;2023-05-01T12:44:16;5.77;;;5.27;;
1350;SDS011;669;50.206;9.998;2023-05-01T12:46:51;5.60;;;5.03;;
1350;SDS011;669;50.206;9.998;2023-05-01T12:49:20;5.50;;;5.00;;
1350;SDS011;669;50.206;9.998;2023-05-01T12:51:50;6.80;;;6.20;;
1350;SDS011;669;50.206;9.998;2023-05-01T12:54:19;6.03;;;5.47;;
1350;SDS011;669;50.206;9.998;2023-05-01T12:56:48;6.00;;;5.40;;
1350;SDS011;669;50.206;9.998;2023-05-01T12:59:18;6.30;;;5.70;;
1350;SDS011;669;50.206;9.998;2023-05-01T13:01:48;6.07;;;5.57;;
1350;SDS011;669;50.206;9.998;2023-05-01T13:04:23;6.20;;;5.27;;
1350;SDS011;669;50.206;9.998;2023-05-01T13:06:53;8.57;;;5.80;;
1350;SDS011;669;50.206;9.998;2023-05-01T13:09:22;6.20;;;5.33;;
1350;SDS011;669;50.206;9.998;2023-05-01T13:11:58;9.03;;;7.37;;
1350;SDS011;669;50.206;9.998;2023-05-01T13:14:27;8.60;;;6.10;;
1350;SDS011;669;50.206;9.998;2023-05-01T13:16:56;9.70;;;6.77;;
1350;SDS011;669;50.206;9.998;2023-05-01T13:19:25;6.83;;;5.80;;
1350;SDS011;669;50.206;9.998;2023-05-01T13:21:55;9.77;;;6.10;;
1350;SDS011;669;50.206;9.998;2023-05-01T13:24:24;6.67;;;6.00;;
1350;SDS011;669;50.206;9.998;2023-05-01T13:27:02;7.03;;;6.33;;
1350;SDS011;669;50.206;9.998;2023-05-01T13:29:31;8.23;;;6.80;;
1350;SDS011;669;50.206;9.998;2023-05-01T13:31:59;6.80;;;6.10;;
1350;SDS011;669;50.206;9.998;2023-05-01T13:34:30;6.80;;;6.20;;
1350;SDS011;669;50.206;9.998;2023-05-01T13:37:00;7.00;;;5.70;;
1350;SDS011;669;50.206;9.998;2023-05-01T13:39:28;5.53;;;5.13;;
1350;SDS011;669;50.206;9.998;2023-05-01T13:41:56;6.87;;;5.63;;
1350;SDS011;669;50.206;9.998;2023-05-01T13:44:24;7.20;;;6.03;;
1350;SDS011;669;50.206;9.998;2023-05-01T13:46:53;7.10;;;6.40;;
1350;SDS011;669;50.206;9.998;2023-05-01T13:49:21;6.73;;;6.13;;
1350;SDS011;669;50.206;9.998;2023-05-01T13:51:50;7.60;;;5.77;;
1350;SDS011;669;50.206;9.998;2023-05-01T13:54:22;6.07;;;5.57;;
1350;SDS011;669;50.206;9.998;2023-05-01T13:56:50;6.13;;;5.40;;
1350;SDS011;669;50.206;9.998;2023-05-01T13:59:18;6.30;;;5.57;;
1350;SDS011;669;50.206;9.998;2023-05-01T14:01:46;6.57;;;5.23;;
1350;SDS011;669;50.206;9.998;2023-05-01T14:04:14;6.43;;;5.80;;
1350;SDS011;669;50.206;9.998;2023-05-01T14:06:46;7.43;;;5.57;;
1350;SDS011;669;50.206;9.998;2023-05-01T14:09:15;6.23;;;5.63;;
1350;SDS011;669;50.206;9.998;2023-05-01T14:11:46;8.33;;;5.87;;
1350;SDS011;669;50.206;9.998;2023-05-01T14:14:14;6.10;;;5.50;;
1350;SDS011;669;50.206;9.998;2023-05-01T14:16:45;6.70;;;5.73;;
1350;SDS011;669;50.206;9.998;2023-05-01T14:19:14;12.70;;;6.40;;
1350;SDS011;669;50.206;9.998;2023-05-01T14:21:43;7.27;;;5.80;;
1350;SDS011;669;50.206;9.998;2023-05-01T14:24:12;8.17;;;6.53;;
1350;SDS011;669;50.206;9.998;2023-05-01T14:26:43;5.33;;;4.80;;
1350;SDS011;669;50.206;9.998;2023-05-01T14:29:21;8.10;;;6.10;;
1350;SDS011;669;50.206;9.998;2023-05-01T14:31:51;6.80;;;6.10;;
1350;SDS011;669;50.206;9.998;2023-05-01T14:34:20;7.17;;;5.50;;
1350;SDS011;669;50.206;9.998;2023-05-01T14:36:49;7.10;;;6.40;;
1350;SDS011;669;50.206;9.998;2023-05-01T14:39:17;9.83;;;6.40;;
1350;SDS011;669;50.206;9.998;2023-05-01T14:41:46;10.73;;;7.17;;
1350;SDS011;669;50.206;9.998;2023-05-01T14:44:15;6.73;;;6.03;;
1350;SDS011;669;50.206;9.998;2023-05-01T14:46:45;6.30;;;5.70;;
1350;SDS011;669;50.206;9.998;2023-05-01T14:49:17;8.80;;;7.30;;
1350;SDS011;669;50.206;9.998;2023-05-01T14:51:46;10.47;;;7.20;;
1350;SDS011;669;50.206;9.998;2023-05-01T14:54:14;7.03;;;6.43;;
1350;SDS011;669;50.206;9.998;2023-05-01T14:56:42;7.10;;;6.40;;
1350;SDS011;669;50.206;9.998;2023-05-01T14:59:13;8.27;;;6.80;;
1350;SDS011;669;50.206;9.998;2023-05-01T15:01:41;6.20;;;5.60;;
1350;SDS011;669;50.206;9.998;2023-05-01T15:04:10;7.07;;;6.17;;
1350;SDS011;669;50.206;9.998;2023-05-01T15:06:38;6.07;;;5.47;;
1350;SDS011;669;50.206;9.998;2023-05-01T15:09:06;7.87;;;6.43;;
1350;SDS011;669;50.206;9.998;2023-05-01T15:11:34;9.20;;;6.90;;
1350;SDS011;669;50.206;9.998;2023-05-01T15:14:01;7.63;;;6.83;;
1350;SDS011;669;50.206;9.998;2023-05-01T15:16:31;8.23;;;6.30;;
1350;SDS011;669;50.206;9.998;2023-05-01T15:18:59;8.60;;;6.53;;
1350;SDS011;669;50.206;9.998;2023-05-01T15:21:26;8.00;;;5.80;;
1350;SDS011;669;50.206;9.998;2023-05-01T15:23:54;6.37;;;5.47;;
1350;SDS011;669;50.206;9.998;2023-05-01T15:26:22;8.73;;;6.20;;
1350;SDS011;669;50.206;9.998;2023-05-01T15:28:50;8.13;;;6.10;;
1350;SDS011;669;50.206;9.998;2023-05-01T15:31:18;7.30;;;6.50;;
1350;SDS011;669;50.206;9.998;2023-05-01T15:33:47;6.87;;;6.17;;
1350;SDS011;669;50.206;9.998;2023-05-01T15:36:15;6.83;;;6.23;;
1350;SDS011;669;50.206;9.998;2023-05-01T15:38:44;7.27;;;6.57;;
1350;SDS011;669;50.206;9.998;2023-05-01T15:41:13;8.30;;;6.10;;
1350;SDS011;669;50.206;9.998;2023-05-01T15:43:44;6.67;;;5.93;;
1350;SDS011;669;50.206;9.998;2023-05-01T15:46:12;6.57;;;6.00;;
1350;SDS011;669;50.206;9.998;2023-05-01T15:48:41;7.83;;;5.80;;
1350;SDS011;669;50.206;9.998;2023-05-01T15:51:10;7.03;;;6.33;;
1350;SDS011;669;50.206;9.998;2023-05-01T15:53:38;8.07;;;5.87;;
1350;SDS011;669;50.206;9.998;2023-05-01T15:56:06;5.30;;;4.77;;